Time;durP1;ratioP1;P1;durP2;ratioP2;P2;SDS_P1;SDS_P2;PMS_P1;PMS_P2;Temp;Humidity;BMP_temperature;BMP_pressure;BME280_temperature;BME280_humidity;BME280_pressure;Samples;Min_cycle;Max_cycle;Signal;HPM_P1;HPM_P2
2021/01/02 00:00:13;;;;;;;;;;;-1.30;99.90;;;;;;4746530;30;19949;-71
2021/01/02 00:06:30;;;;;;;;;;;;;;;;;;;;;
2021/01/02 00:12:33;;;;;;;;;;;-1.50;99.90;;;;;;4760875;30;20367;-71
2021/01/02 00:15:17;;;;;;;;;;;-1.50;99.90;;;;;;4730776;30;19917;-71
2021/01/02 00:18:09;;;;;;;;;;;-1.60;99.90;;;;;;4751672;30;19918;-71
2021/01/02 00:24:00;;;;;;;;;;;-1.30;99.90;;;;;;4762957;30;19917;-71
2021/01/02 00:26:39;;;;;;;;;;;;;;;;;;;;;
2021/01/02 00:29:26;;;;;;;;;;;-1.10;99.90;;;;;;4772678;30;19926;-71
2021/01/02 00:35:26;;;;;;;;;;;-0.70;99.90;;;;;;4772519;30;19918;-71
2021/01/02 00:38:18;;;;;;;;;;;-0.70;99.90;;;;;;4770264;30;20005;-71
2021/01/02 00:50:49;;;;;;;;;;;-1.40;99.90;;;;;;4754776;30;19946;-71
2021/01/02 01:02:46;;;;;;;;;;;-1.30;99.90;;;;;;4709936;30;20322;-71
2021/01/02 01:05:26;;;;;;;;;;;-1.50;99.90;;;;;;4753507;30;20032;-71
2021/01/02 01:08:07;;;;;;;;;;;-1.50;99.90;;;;;;4767801;30;19975;-71
2021/01/02 01:11:10;;;;;;;;;;;;;;;;;;;;;
2021/01/02 01:13:40;;;;;;;;;;;-1.50;99.90;;;;;;4789590;30;20267;-71
2021/01/02 01:16:44;;;;;;;;;;;-1.50;99.90;;;;;;4769903;30;19918;-71
2021/01/02 01:19:31;;;;;;;;;;;-1.60;99.90;;;;;;4759151;30;20374;-71
2021/01/02 01:22:29;;;;;;;;;;;-1.60;99.90;;;;;;4764326;30;19918;-71
2021/01/02 01:25:12;;;;;;;;;;;-1.70;99.90;;;;;;4754869;30;19918;-71
2021/01/02 01:27:57;;;;;;;;;;;-1.50;99.90;;;;;;4759395;30;20382;-71
2021/01/02 01:30:46;;;;;;;;;;;-1.50;99.90;;;;;;4768002;30;19929;-71
2021/01/02 01:33:25;;;;;;;;;;;-1.60;99.90;;;;;;4737107;30;19918;-71
2021/01/02 01:36:03;;;;;;;;;;;-1.70;99.90;;;;;;4771254;29;19918;-71
2021/01/02 01:39:01;;;;;;;;;;;-1.70;99.90;;;;;;4766905;30;19924;-71
2021/01/02 01:41:50;;;;;;;;;;;-1.80;99.90;;;;;;4789697;30;19917;-71
2021/01/02 01:44:43;;;;;;;;;;;-1.70;99.90;;;;;;4770844;29;19917;-71
2021/01/02 01:47:46;;;;;;;;;;;;;;;;;;;;;
2021/01/02 01:51:02;;;;;;;;;;;-1.70;99.90;;;;;;4779263;30;19921;-71
2021/01/02 02:00:12;;;;;;;;;;;;;;;;;;;;;
2021/01/02 02:02:55;;;;;;;;;;;-1.60;99.90;;;;;;4770952;30;20326;-71
2021/01/02 02:06:00;;;;;;;;;;;-1.20;99.90;;;;;;4781646;30;19928;-71
2021/01/02 02:12:13;;;;;;;;;;;;;;;;;;;;;
2021/01/02 02:15:17;;;;;;;;;;;-1.20;99.90;;;;;;4788722;30;19924;-71
2021/01/02 02:21:01;;;;;;;;;;;-1.60;99.90;;;;;;4750541;30;20406;-71
2021/01/02 02:27:11;;;;;;;;;;;-1.60;99.90;;;;;;4750885;30;20010;-71
2021/01/02 02:29:59;;;;;;;;;;;-1.60;99.90;;;;;;4731724;30;19927;-71
2021/01/02 02:32:55;;;;;;;;;;;-1.60;99.90;;;;;;4730979;30;19954;-71
2021/01/02 02:39:01;;;;;;;;;;;-1.50;99.90;;;;;;4715058;30;19926;-71
2021/01/02 02:41:34;;;;;;;;;;;-1.00;99.90;;;;;;4691330;30;20353;-71
2021/01/02 02:44:38;;;;;;;;;;;-0.80;99.90;;;;;;4713601;30;19918;-71
2021/01/02 02:47:40;;;;;;;;;;;;;;;;;;;;;
2021/01/02 02:50:28;;;;;;;;;;;-0.80;99.90;;;;;;4764717;30;19941;-71
2021/01/02 02:56:38;;;;;;;;;;;-1.20;99.90;;;;;;4745700;30;19925;-71
2021/01/02 02:59:36;;;;;;;;;;;-1.30;99.90;;;;;;4746844;30;19918;-71
2021/01/02 03:02:52;;;;;;;;;;;;;;;;;;;;;
2021/01/02 03:18:58;;;;;;;;;;;;;;;;;;;;;
2021/01/02 03:31:20;;;;;;;;;;;-1.40;99.90;;;;;;4722513;30;19927;-71
2021/01/02 03:37:31;;;;;;;;;;;-0.50;99.90;;;;;;4769410;30;19918;-71
2021/01/02 03:43:24;;;;;;;;;;;;;;;;;;;;;
2021/01/02 03:49:47;;;;;;;;;;;0.10;99.90;;;;;;4769086;30;19925;-71
2021/01/02 03:52:26;;;;;;;;;;;0.10;99.90;;;;;;4752981;30;19921;-71
2021/01/02 03:55:04;;;;;;;;;;;0.10;99.90;;;;;;4753526;30;19922;-71
2021/01/02 03:57:47;;;;;;;;;;;0.00;99.90;;;;;;4753290;30;19928;-71
2021/01/02 04:00:44;;;;;;;;;;;;;;;;;;;;;
2021/01/02 04:03:41;;;;;;;;;;;0.10;99.90;;;;;;4777486;30;19947;-71
2021/01/02 04:06:50;;;;;;;;;;;;;;;;;;;;;
2021/01/02 04:09:28;;;;;;;;;;;0.10;99.90;;;;;;4786225;30;19932;-71
2021/01/02 04:18:52;;;;;;;;;;;0.50;99.90;;;;;;4784874;30;20382;-71
2021/01/02 04:21:55;;;;;;;;;;;0.50;99.90;;;;;;4769749;30;19921;-71
2021/01/02 04:25:02;;;;;;;;;;;;;;;;;;;;;
2021/01/02 04:27:57;;;;;;;;;;;0.50;99.90;;;;;;4772963;30;19917;-70
2021/01/02 04:33:53;;;;;;;;;;;;;;;;;;;;;
2021/01/02 04:49:29;;;;;;;;;;;0.40;99.90;;;;;;4786906;30;19929;-71
2021/01/02 05:01:39;;;;;;;;;;;0.70;99.90;;;;;;4790057;30;19921;-71
2021/01/02 05:04:24;;;;;;;;;;;0.60;99.90;;;;;;4768771;30;20386;-71
2021/01/02 05:23:04;;;;;;;;;;;;;;;;;;;;;
2021/01/02 05:26:02;;;;;;;;;;;;;;;;;;;;;
2021/01/02 05:32:33;;;;;;;;;;;0.70;99.90;;;;;;4771630;30;19933;-71
2021/01/02 05:35:54;;;;;;;;;;;0.70;99.90;;;;;;4746670;30;20264;-71
2021/01/02 05:38:37;;;;;;;;;;;0.80;99.90;;;;;;4769352;30;19917;-71
2021/01/02 05:44:40;;;;;;;;;;;0.90;99.90;;;;;;4698098;30;19960;-71
2021/01/02 05:53:52;;;;;;;;;;;1.00;99.90;;;;;;4691405;30;19997;-71
2021/01/02 05:56:49;;;;;;;;;;;1.00;99.90;;;;;;4698335;30;20296;-71
2021/01/02 06:06:26;;;;;;;;;;;;;;;;;;;;;
2021/01/02 06:09:22;;;;;;;;;;;1.10;99.90;;;;;;4769069;30;20363;-71
2021/01/02 06:15:40;;;;;;;;;;;1.00;99.90;;;;;;4759183;30;19951;-71
2021/01/02 06:19:19;;;;;;;;;;;1.10;99.90;;;;;;4715750;30;20269;-71
2021/01/02 06:22:04;;;;;;;;;;;;;;;;;;;;;
2021/01/02 06:25:15;;;;;;;;;;;;;;;;;;;;;
2021/01/02 06:29:12;;;;;;;;;;;;;;;;;;;;;
2021/01/02 06:31:35;;;;;;;;;;;1.00;99.90;;;;;;4759098;30;19929;-71
2021/01/02 06:37:23;;;;;;;;;;;0.80;99.90;;;;;;4767450;30;20499;-71
2021/01/02 06:43:38;;;;;;;;;;;;;;;;;;;;;
2021/01/02 06:46:20;;;;;;;;;;;0.80;99.90;;;;;;4770184;30;20355;-71
2021/01/02 06:52:24;;;;;;;;;;;0.80;99.90;;;;;;4742505;30;19961;-71
2021/01/02 06:58:26;;;;;;;;;;;0.80;99.90;;;;;;4719398;30;19917;-71
2021/01/02 07:10:41;;;;;;;;;;;0.80;99.90;;;;;;4787678;30;20405;-71
2021/01/02 07:13:24;;;;;;;;;;;0.70;99.90;;;;;;4771376;30;20000;-71
2021/01/02 07:19:46;;;;;;;;;;;0.60;99.90;;;;;;4714518;30;19923;-71
2021/01/02 07:22:36;;;;;;;;;;;0.60;99.90;;;;;;4717995;30;19925;-71
2021/01/02 07:25:52;;;;;;;;;;;0.40;99.90;;;;;;4753369;30;20436;-71
2021/01/02 07:29:02;;;;;;;;;;;;;;;;;;;;;
2021/01/02 07:35:49;;;;;;;;;;;;;;;;;;;;;
2021/01/02 07:38:48;;;;;;;;;;;0.40;99.90;;;;;;4645824;30;20343;-71
2021/01/02 08:29:09;;;;;;;;;;;0.50;99.90;;;;;;4622563;31;19960;-71
2021/01/02 08:32:04;;;;;;;;;;;0.50;99.90;;;;;;4623502;31;20015;-71
2021/01/02 08:44:32;;;;;;;;;;;0.40;99.90;;;;;;4681249;30;20003;-71
2021/01/02 08:50:34;;;;;;;;;;;;;;;;;;;;;
2021/01/02 08:53:47;;;;;;;;;;;;;;;;;;;;;
2021/01/02 09:02:32;;;;;;;;;;;0.70;99.90;;;;;;4734261;30;20004;-71
2021/01/02 09:08:53;;;;;;;;;;;0.80;99.90;;;;;;4698251;30;19978;-70
2021/01/02 09:11:41;;;;;;;;;;;0.70;99.90;;;;;;4762520;30;19995;-71
2021/01/02 09:18:21;;;;;;;;;;;0.80;99.90;;;;;;4697112;30;20259;-71
2021/01/02 09:20:46;;;;;;;;;;;0.80;99.90;;;;;;4697080;30;20344;-71
2021/01/02 09:29:42;;;;;;;;;;;0.90;99.90;;;;;;4682348;30;19930;-71
2021/01/02 09:36:22;;;;;;;;;;;0.80;99.90;;;;;;4767956;30;20014;-71
2021/01/02 09:38:49;;;;;;;;;;;0.90;99.90;;;;;;4746018;30;19918;-71
2021/01/02 09:50:45;;;;;;;;;;;1.30;99.90;;;;;;4747394;30;19936;-71
2021/01/02 09:53:14;;;;;;;;;;;1.10;99.90;;;;;;4752278;30;19919;-75
2021/01/02 09:55:40;;;;;;;;;;;1.30;99.90;;;;;;4752744;30;19925;-74
2021/01/02 09:58:10;;;;;;;;;;;1.40;99.90;;;;;;4768448;30;19925;-75
2021/01/02 10:00:41;;;;;;;;;;;1.50;99.90;;;;;;4772777;30;19964;-76
2021/01/02 10:03:11;;;;;;;;;;;1.70;99.90;;;;;;4753216;30;19926;-75
2021/01/02 10:05:39;;;;;;;;;;;1.70;99.90;;;;;;4752623;30;19925;-77
2021/01/02 10:10:52;;;;;;;;;;;1.90;99.90;;;;;;4743251;30;19932;-75
2021/01/02 10:13:19;;;;;;;;;;;1.70;99.90;;;;;;4729189;30;20361;-77
2021/01/02 10:15:46;;;;;;;;;;;1.70;99.90;;;;;;4740432;30;20013;-76
2021/01/02 10:18:12;;;;;;;;;;;1.40;99.90;;;;;;4741477;30;19997;-73
2021/01/02 10:20:38;;;;;;;;;;;1.40;99.90;;;;;;4746034;30;20004;-74
2021/01/02 10:23:03;;;;;;;;;;;1.60;99.90;;;;;;4742557;30;19918;-73
2021/01/02 10:25:29;;;;;;;;;;;1.50;99.90;;;;;;4749470;30;19918;-73
2021/01/02 10:27:55;;;;;;;;;;;1.30;99.90;;;;;;4747116;30;19926;-74
2021/01/02 10:30:20;;;;;;;;;;;1.20;99.90;;;;;;4749193;30;19926;-74
2021/01/02 10:32:46;;;;;;;;;;;1.10;99.90;;;;;;4769727;29;19922;-74
2021/01/02 10:35:13;;;;;;;;;;;1.00;99.90;;;;;;4781911;29;19924;-73
2021/01/02 10:37:39;;;;;;;;;;;1.00;99.90;;;;;;4792164;29;19921;-73
2021/01/02 10:40:06;;;;;;;;;;;1.10;99.90;;;;;;4787094;30;20020;-73
2021/01/02 10:42:32;;;;;;;;;;;1.50;99.90;;;;;;4787516;30;19928;-74
2021/01/02 10:45:01;;;;;;;;;;;1.60;99.90;;;;;;4787849;30;19922;-73
2021/01/02 10:47:28;;;;;;;;;;;1.60;99.90;;;;;;4785976;30;19922;-74
2021/01/02 10:49:54;;;;;;;;;;;1.40;99.90;;;;;;4790977;29;19932;-74
2021/01/02 10:52:20;;;;;;;;;;;1.40;99.90;;;;;;4805263;29;19921;-74
2021/01/02 10:54:47;;;;;;;;;;;1.50;99.90;;;;;;4788839;29;19921;-74
2021/01/02 10:57:13;;;;;;;;;;;1.70;99.90;;;;;;4805411;29;19929;-73
2021/01/02 10:59:41;;;;;;;;;;;1.80;99.90;;;;;;4771289;29;20013;-74
2021/01/02 11:02:07;;;;;;;;;;;1.80;99.90;;;;;;4769708;30;19930;-73
2021/01/02 11:04:33;;;;;;;;;;;1.80;99.90;;;;;;4777505;29;19924;-73
2021/01/02 11:06:59;;;;;;;;;;;1.60;99.90;;;;;;4787575;30;19928;-74
2021/01/02 11:09:27;;;;;;;;;;;1.80;99.90;;;;;;4767593;30;19921;-72
2021/01/02 11:12:02;;;;;;;;;;;1.90;99.90;;;;;;4786661;30;19951;-73
2021/01/02 11:14:28;;;;;;;;;;;1.90;99.90;;;;;;4786773;30;19929;-74
2021/01/02 11:16:55;;;;;;;;;;;1.80;99.90;;;;;;4793178;29;20482;-70
2021/01/02 11:19:21;;;;;;;;;;;1.90;99.90;;;;;;4794050;29;19918;-75
2021/01/02 11:21:48;;;;;;;;;;;2.00;99.90;;;;;;4778335;29;20404;-75
2021/01/02 11:24:15;;;;;;;;;;;1.90;99.90;;;;;;4803833;29;19921;-75
2021/01/02 11:26:47;;;;;;;;;;;1.90;99.90;;;;;;4788473;29;19921;-74
2021/01/02 11:29:14;;;;;;;;;;;2.00;99.90;;;;;;4794653;29;19918;-75
2021/01/02 11:31:43;;;;;;;;;;;2.00;99.90;;;;;;4785861;30;19921;-72
2021/01/02 11:34:17;;;;;;;;;;;1.80;99.90;;;;;;4785393;30;20190;-75
2021/01/02 11:36:43;;;;;;;;;;;2.00;99.90;;;;;;4786043;29;20297;-77
2021/01/02 11:39:10;;;;;;;;;;;2.10;99.90;;;;;;4769260;30;19925;-77
2021/01/02 11:41:37;;;;;;;;;;;1.80;99.90;;;;;;4786394;30;19918;-75
2021/01/02 11:44:03;;;;;;;;;;;1.90;99.90;;;;;;4786976;30;20370;-74
2021/01/02 11:46:30;;;;;;;;;;;2.10;99.90;;;;;;4782369;30;19921;-74
2021/01/02 11:48:56;;;;;;;;;;;2.20;99.90;;;;;;4768244;30;19983;-75
2021/01/02 11:51:22;;;;;;;;;;;2.10;99.90;;;;;;4768251;30;19925;-75
2021/01/02 11:53:48;;;;;;;;;;;2.00;99.90;;;;;;4768107;30;19918;-74
2021/01/02 11:56:14;;;;;;;;;;;2.00;99.90;;;;;;4769426;30;19971;-74
2021/01/02 11:58:39;;;;;;;;;;;1.80;99.90;;;;;;4770465;30;19921;-75
2021/01/02 12:01:05;;;;;;;;;;;1.80;99.90;;;;;;4777030;30;19921;-74
2021/01/02 12:03:32;;;;;;;;;;;1.90;99.90;;;;;;4769066;30;19925;-77
2021/01/02 12:05:57;;;;;;;;;;;1.80;99.90;;;;;;4768284;30;19926;-75
2021/01/02 12:08:24;;;;;;;;;;;1.70;99.90;;;;;;4769751;30;20294;-76
2021/01/02 12:10:50;;;;;;;;;;;1.60;99.90;;;;;;4768434;30;20024;-74
2021/01/02 12:13:15;;;;;;;;;;;1.70;99.90;;;;;;4768977;30;20517;-74
2021/01/02 12:15:41;;;;;;;;;;;1.60;99.90;;;;;;4770443;30;19918;-74
2021/01/02 12:18:06;;;;;;;;;;;1.70;99.90;;;;;;4770011;30;19997;-74
2021/01/02 12:20:32;;;;;;;;;;;1.60;99.90;;;;;;4768955;30;19918;-74
2021/01/02 12:22:58;;;;;;;;;;;1.60;99.90;;;;;;4768425;30;19945;-74
2021/01/02 12:25:24;;;;;;;;;;;1.60;99.90;;;;;;4767766;30;20278;-74
2021/01/02 12:27:50;;;;;;;;;;;1.40;99.90;;;;;;4776560;30;19990;-74
2021/01/02 12:30:16;;;;;;;;;;;1.50;99.90;;;;;;4786943;30;20275;-75
2021/01/02 12:32:42;;;;;;;;;;;1.30;99.90;;;;;;4787019;30;20348;-74
2021/01/02 12:35:08;;;;;;;;;;;1.40;99.90;;;;;;4787159;30;19918;-74
2021/01/02 12:37:33;;;;;;;;;;;1.40;99.90;;;;;;4764987;30;20393;-74
2021/01/02 12:39:59;;;;;;;;;;;1.30;99.90;;;;;;4768954;30;20008;-74
2021/01/02 12:42:24;;;;;;;;;;;1.30;99.90;;;;;;4753004;30;20366;-74
2021/01/02 12:44:50;;;;;;;;;;;1.20;99.90;;;;;;4768936;30;20374;-74
2021/01/02 12:47:17;;;;;;;;;;;1.10;99.90;;;;;;4786175;30;19953;-74
2021/01/02 12:49:43;;;;;;;;;;;1.10;99.90;;;;;;4787367;30;19985;-75
2021/01/02 12:52:09;;;;;;;;;;;1.00;99.90;;;;;;4770962;30;19922;-74
2021/01/02 12:54:35;;;;;;;;;;;1.00;99.90;;;;;;4778698;30;20401;-74
2021/01/02 12:57:01;;;;;;;;;;;0.80;99.90;;;;;;4768792;30;19922;-75
2021/01/02 12:59:28;;;;;;;;;;;0.70;99.90;;;;;;4769061;30;19918;-74
2021/01/02 13:01:54;;;;;;;;;;;0.60;99.90;;;;;;4752813;30;20375;-75
2021/01/02 13:04:20;;;;;;;;;;;0.50;99.90;;;;;;4752769;30;20028;-74
2021/01/02 13:16:50;;;;;;;;;;;0.10;99.90;;;;;;4695770;30;20058;-76
2021/01/02 13:32:11;;;;;;;;;;;0.10;99.90;;;;;;4647629;30;19935;-74
2021/01/02 13:34:37;;;;;;;;;;;0.00;99.90;;;;;;4728225;30;19919;-75
2021/01/02 13:37:07;;;;;;;;;;;0.20;99.90;;;;;;4742737;30;19925;-76
2021/01/02 13:39:33;;;;;;;;;;;0.20;99.90;;;;;;4753895;30;19918;-75
2021/01/02 13:41:59;;;;;;;;;;;0.10;99.90;;;;;;4753135;30;20279;-75
2021/01/02 13:44:27;;;;;;;;;;;-0.20;99.90;;;;;;4745727;30;19922;-75
2021/01/02 13:47:06;;;;;;;;;;;0.00;99.90;;;;;;4769721;29;19917;-74
2021/01/02 13:49:34;;;;;;;;;;;-0.10;99.90;;;;;;4773136;30;20279;-74
2021/01/02 13:52:01;;;;;;;;;;;0.00;99.90;;;;;;4761648;30;19917;-74
2021/01/02 13:54:26;;;;;;;;;;;0.00;99.90;;;;;;4761954;30;19933;-74
2021/01/02 13:56:52;;;;;;;;;;;0.10;99.90;;;;;;4771832;29;19921;-74
2021/01/02 13:59:29;;;;;;;;;;;0.20;99.90;;;;;;4761729;30;20466;-74
2021/01/02 14:02:02;;;;;;;;;;;0.10;99.90;;;;;;4762651;30;19917;-74
2021/01/02 14:04:28;;;;;;;;;;;0.10;99.90;;;;;;4762092;30;19922;-74
2021/01/02 14:06:59;;;;;;;;;;;0.20;99.90;;;;;;4765276;30;19936;-74
2021/01/02 14:09:26;;;;;;;;;;;0.30;99.90;;;;;;4752656;30;19921;-73
2021/01/02 14:11:58;;;;;;;;;;;0.10;99.90;;;;;;4758775;30;19922;-74
2021/01/02 14:14:24;;;;;;;;;;;0.10;99.90;;;;;;4758633;29;19925;-74
2021/01/02 14:16:56;;;;;;;;;;;0.10;99.90;;;;;;4775148;29;19922;-74
2021/01/02 14:19:27;;;;;;;;;;;0.10;99.90;;;;;;4762479;30;19988;-74
2021/01/02 14:21:54;;;;;;;;;;;0.10;99.90;;;;;;4772410;29;20445;-74
2021/01/02 14:24:29;;;;;;;;;;;0.10;99.90;;;;;;4771667;30;19928;-74
2021/01/02 14:26:55;;;;;;;;;;;0.20;99.90;;;;;;4783965;30;19922;-74
2021/01/02 14:29:24;;;;;;;;;;;0.30;99.90;;;;;;4777859;30;19946;-74
2021/01/02 14:31:58;;;;;;;;;;;0.20;99.90;;;;;;4763663;30;19932;-74
2021/01/02 14:34:29;;;;;;;;;;;0.10;99.90;;;;;;4772048;30;19917;-74
2021/01/02 14:37:10;;;;;;;;;;;0.20;99.90;;;;;;4772592;29;20392;-74
2021/01/02 14:39:36;;;;;;;;;;;0.20;99.90;;;;;;4767395;30;19957;-74
2021/01/02 14:42:04;;;;;;;;;;;0.30;99.90;;;;;;4789475;29;20007;-74
2021/01/02 14:45:14;;;;;;;;;;;0.30;99.90;;;;;;4791384;29;19918;-74
2021/01/02 14:48:11;;;;;;;;;;;0.30;99.90;;;;;;4766486;29;19953;-74
2021/01/02 14:50:40;;;;;;;;;;;0.40;99.90;;;;;;4776130;29;19937;-74
2021/01/02 14:53:09;;;;;;;;;;;0.40;99.90;;;;;;4777861;29;19921;-74
2021/01/02 14:55:41;;;;;;;;;;;0.50;99.90;;;;;;4771137;30;19917;-75
2021/01/02 14:58:16;;;;;;;;;;;0.60;99.90;;;;;;4763260;30;20390;-74
2021/01/02 15:00:49;;;;;;;;;;;0.60;99.90;;;;;;4772297;30;19968;-74
2021/01/02 15:03:39;;;;;;;;;;;0.40;99.90;;;;;;4768651;30;19917;-75
2021/01/02 15:12:32;;;;;;;;;;;0.50;99.90;;;;;;4777833;30;19933;-76
2021/01/02 15:15:19;;;;;;;;;;;0.60;99.90;;;;;;4736507;30;20046;-75
2021/01/02 15:30:12;;;;;;;;;;;0.60;99.90;;;;;;4612058;31;19986;-76
2021/01/02 15:35:41;;;;;;;;;;;0.40;99.90;;;;;;4661868;30;19985;-75
2021/01/02 15:42:07;;;;;;;;;;;0.50;99.90;;;;;;4662020;30;19965;-76
2021/01/02 15:44:35;;;;;;;;;;;0.50;99.90;;;;;;4647915;30;20341;-74
2021/01/02 15:47:08;;;;;;;;;;;0.40;99.90;;;;;;4674958;30;20007;-75
2021/01/02 15:52:39;;;;;;;;;;;0.40;99.90;;;;;;4678860;30;19984;-86
2021/01/02 15:55:08;;;;;;;;;;;0.40;99.90;;;;;;4678842;30;19920;-74
2021/01/02 15:57:53;;;;;;;;;;;0.50;99.90;;;;;;4679997;30;19920;-76
2021/01/02 16:06:47;;;;;;;;;;;0.70;99.90;;;;;;4730794;30;19930;-77
2021/01/02 16:09:17;;;;;;;;;;;0.70;99.90;;;;;;4753722;29;19925;-77
2021/01/02 16:11:54;;;;;;;;;;;0.70;99.90;;;;;;4767659;29;19960;-77
2021/01/02 16:14:33;;;;;;;;;;;0.70;99.90;;;;;;4775461;30;19921;-78
2021/01/02 16:17:30;;;;;;;;;;;;;;;;;;;;;
2021/01/02 16:23:08;;;;;;;;;;;0.80;99.90;;;;;;4784872;29;20401;-81
2021/01/02 16:25:34;;;;;;;;;;;0.80;99.90;;;;;;4761205;30;19929;-78
2021/01/02 16:28:00;;;;;;;;;;;0.80;99.90;;;;;;4761055;30;20272;-78
2021/01/02 16:30:25;;;;;;;;;;;0.90;99.90;;;;;;4761393;30;20071;-78
2021/01/02 16:32:51;;;;;;;;;;;0.80;99.90;;;;;;4762308;30;19928;-78
2021/01/02 16:35:17;;;;;;;;;;;0.90;99.90;;;;;;4758467;30;19925;-75
2021/01/02 16:37:46;;;;;;;;;;;0.80;99.90;;;;;;4765925;30;19917;-79
2021/01/02 16:40:13;;;;;;;;;;;0.90;99.90;;;;;;4760997;30;20052;-78
2021/01/02 16:42:39;;;;;;;;;;;0.90;99.90;;;;;;4787059;29;19957;-76
2021/01/02 16:45:05;;;;;;;;;;;0.90;99.90;;;;;;4771793;30;20022;-77
2021/01/02 16:47:33;;;;;;;;;;;0.90;99.90;;;;;;4761429;30;19918;-77
2021/01/02 16:50:03;;;;;;;;;;;0.80;99.90;;;;;;4753915;30;20015;-78
2021/01/02 16:52:29;;;;;;;;;;;0.80;99.90;;;;;;4771574;30;19922;-77
2021/01/02 16:54:57;;;;;;;;;;;0.80;99.90;;;;;;4768811;30;19924;-78
2021/01/02 16:57:23;;;;;;;;;;;0.80;99.90;;;;;;4773935;30;19921;-76
2021/01/02 16:59:49;;;;;;;;;;;0.80;99.90;;;;;;4763976;30;19947;-78
2021/01/02 17:02:15;;;;;;;;;;;0.90;99.90;;;;;;4756686;30;19921;-78
2021/01/02 17:04:46;;;;;;;;;;;0.80;99.90;;;;;;4762046;30;19928;-78
2021/01/02 17:07:16;;;;;;;;;;;0.90;99.90;;;;;;4773023;30;19926;-80
2021/01/02 17:09:42;;;;;;;;;;;0.90;99.90;;;;;;4796177;29;19968;-76
2021/01/02 17:12:14;;;;;;;;;;;0.90;99.90;;;;;;4760065;30;20323;-74
2021/01/02 17:14:39;;;;;;;;;;;0.90;99.90;;;;;;4779306;30;20009;-76
2021/01/02 17:20:19;;;;;;;;;;;0.90;99.90;;;;;;4773104;30;20314;-75
2021/01/02 17:22:50;;;;;;;;;;;0.90;99.90;;;;;;4759943;30;19986;-74
2021/01/02 17:25:19;;;;;;;;;;;0.90;99.90;;;;;;4763307;30;19917;-77
2021/01/02 17:27:50;;;;;;;;;;;1.00;99.90;;;;;;4762999;30;19918;-76
2021/01/02 17:30:16;;;;;;;;;;;0.90;99.90;;;;;;4763843;30;19926;-75
2021/01/02 17:33:14;;;;;;;;;;;0.90;99.90;;;;;;4770702;30;19921;-81
2021/01/02 17:35:39;;;;;;;;;;;0.90;99.90;;;;;;4762549;29;19953;-77
2021/01/02 17:38:08;;;;;;;;;;;0.90;99.90;;;;;;4759671;30;20367;-80
2021/01/02 17:40:36;;;;;;;;;;;0.90;99.90;;;;;;4759622;30;20377;-78
2021/01/02 17:43:09;;;;;;;;;;;0.90;99.90;;;;;;4775392;30;20289;-80
2021/01/02 17:45:38;;;;;;;;;;;0.90;99.90;;;;;;4772251;30;19975;-77
2021/01/02 17:48:10;;;;;;;;;;;1.00;99.90;;;;;;4777652;30;19957;-78
2021/01/02 17:54:03;;;;;;;;;;;0.80;99.90;;;;;;4787647;30;20020;-86
2021/01/02 18:00:18;;;;;;;;;;;0.90;99.90;;;;;;4778285;30;19925;-84
2021/01/02 18:03:36;;;;;;;;;;;;;;;;;;;;;
2021/01/02 18:09:37;;;;;;;;;;;0.80;99.90;;;;;;4707354;30;19930;-85
2021/01/02 18:15:35;;;;;;;;;;;0.80;99.90;;;;;;4667016;30;19919;-86
2021/01/02 18:18:07;;;;;;;;;;;0.90;99.90;;;;;;4675538;30;20049;-82
2021/01/02 18:20:52;;;;;;;;;;;0.80;99.90;;;;;;4677821;30;20379;-82
2021/01/02 18:23:27;;;;;;;;;;;0.80;99.90;;;;;;4715471;30;20000;-82
2021/01/02 18:28:59;;;;;;;;;;;0.70;99.90;;;;;;4778751;30;19925;-81
2021/01/02 18:31:32;;;;;;;;;;;0.70;99.90;;;;;;4744357;30;19926;-81
2021/01/02 18:34:01;;;;;;;;;;;0.70;99.90;;;;;;4751771;30;20009;-81
2021/01/02 18:36:30;;;;;;;;;;;0.80;99.90;;;;;;4758759;30;20009;-82
2021/01/02 18:38:56;;;;;;;;;;;0.70;99.90;;;;;;4761720;30;19922;-77
2021/01/02 18:41:30;;;;;;;;;;;0.80;99.90;;;;;;4770997;30;19921;-80
2021/01/02 18:43:59;;;;;;;;;;;0.80;99.90;;;;;;4757533;30;19922;-81
2021/01/02 18:46:28;;;;;;;;;;;0.70;99.90;;;;;;4761078;30;19918;-80
2021/01/02 18:48:55;;;;;;;;;;;0.70;99.90;;;;;;4754595;30;19957;-81
2021/01/02 18:51:39;;;;;;;;;;;0.70;99.90;;;;;;4753934;30;19933;-81
2021/01/02 18:54:07;;;;;;;;;;;0.70;99.90;;;;;;4756012;30;19917;-81
2021/01/02 18:56:36;;;;;;;;;;;0.70;99.90;;;;;;4760171;30;20017;-80
2021/01/02 18:59:03;;;;;;;;;;;0.70;99.90;;;;;;4779930;29;20401;-81
2021/01/02 19:01:28;;;;;;;;;;;0.60;99.90;;;;;;4771418;30;20317;-81
2021/01/02 19:03:54;;;;;;;;;;;0.70;99.90;;;;;;4778039;29;19925;-82
2021/01/02 19:06:20;;;;;;;;;;;0.70;99.90;;;;;;4760812;30;19978;-82
2021/01/02 19:08:47;;;;;;;;;;;0.60;99.90;;;;;;4761852;30;19925;-82
2021/01/02 19:11:23;;;;;;;;;;;0.70;99.90;;;;;;4757629;30;20033;-82
2021/01/02 19:13:49;;;;;;;;;;;0.70;99.90;;;;;;4766679;30;19925;-83
2021/01/02 19:16:16;;;;;;;;;;;0.60;99.90;;;;;;4769041;30;19928;-86
2021/01/02 19:18:42;;;;;;;;;;;0.60;99.90;;;;;;4770464;30;19925;-85
2021/01/02 19:21:08;;;;;;;;;;;0.60;99.90;;;;;;4771300;30;20294;-85
2021/01/02 19:23:33;;;;;;;;;;;0.70;99.90;;;;;;4770006;30;20343;-85
2021/01/02 19:25:59;;;;;;;;;;;0.60;99.90;;;;;;4770993;30;19925;-85
2021/01/02 19:28:25;;;;;;;;;;;0.50;99.90;;;;;;4771876;30;20118;-85
2021/01/02 19:30:51;;;;;;;;;;;0.60;99.90;;;;;;4771268;30;19925;-86
2021/01/02 19:33:19;;;;;;;;;;;0.50;99.90;;;;;;4759659;30;19922;-87
2021/01/02 19:35:47;;;;;;;;;;;0.50;99.90;;;;;;4753256;30;19922;-87
2021/01/02 19:38:13;;;;;;;;;;;0.50;99.90;;;;;;4752722;30;20374;-87
2021/01/02 19:40:39;;;;;;;;;;;0.50;99.90;;;;;;4753579;30;19918;-87
2021/01/02 19:43:08;;;;;;;;;;;0.60;99.90;;;;;;4769677;30;19933;-87
2021/01/02 19:45:34;;;;;;;;;;;0.60;99.90;;;;;;4753444;30;19975;-88
2021/01/02 19:48:02;;;;;;;;;;;0.60;99.90;;;;;;4753882;30;19922;-87
2021/01/02 19:50:35;;;;;;;;;;;0.60;99.90;;;;;;4756468;30;19926;-89
2021/01/02 19:53:01;;;;;;;;;;;0.60;99.90;;;;;;4771174;30;20326;-87
2021/01/02 19:55:45;;;;;;;;;;;0.50;99.90;;;;;;4787713;30;19917;-84
2021/01/02 19:58:13;;;;;;;;;;;0.60;99.90;;;;;;4770969;30;19997;-83
2021/01/02 20:00:38;;;;;;;;;;;0.60;99.90;;;;;;4767036;30;19918;-84
2021/01/02 20:03:07;;;;;;;;;;;0.50;99.90;;;;;;4753266;30;19938;-85
2021/01/02 20:05:33;;;;;;;;;;;0.50;99.90;;;;;;4751819;30;19947;-84
2021/01/02 20:08:00;;;;;;;;;;;0.50;99.90;;;;;;4753514;30;19925;-83
2021/01/02 20:10:26;;;;;;;;;;;0.60;99.90;;;;;;4753890;30;20375;-82
2021/01/02 20:12:52;;;;;;;;;;;0.60;99.90;;;;;;4770811;30;20210;-83
2021/01/02 20:15:18;;;;;;;;;;;0.60;99.90;;;;;;4770515;30;19922;-83
2021/01/02 20:17:52;;;;;;;;;;;0.60;99.90;;;;;;4770897;30;19918;-82
2021/01/02 20:20:17;;;;;;;;;;;0.60;99.90;;;;;;4770742;30;19926;-84
2021/01/02 20:22:46;;;;;;;;;;;0.50;99.90;;;;;;4753424;30;20367;-83
2021/01/02 20:25:12;;;;;;;;;;;0.50;99.90;;;;;;4753254;30;19918;-86
2021/01/02 20:27:40;;;;;;;;;;;0.50;99.90;;;;;;4756638;30;19925;-84
2021/01/02 20:30:06;;;;;;;;;;;0.50;99.90;;;;;;4756737;30;19933;-84
2021/01/02 20:32:31;;;;;;;;;;;0.60;99.90;;;;;;4772140;30;19918;-81
2021/01/02 20:35:00;;;;;;;;;;;0.60;99.90;;;;;;4760637;30;20203;-83
2021/01/02 20:37:25;;;;;;;;;;;0.50;99.90;;;;;;4780731;30;19971;-83
2021/01/02 20:39:51;;;;;;;;;;;0.50;99.90;;;;;;4763672;30;19918;-85
2021/01/02 20:42:18;;;;;;;;;;;0.60;99.90;;;;;;4765333;30;20012;-85
2021/01/02 20:44:45;;;;;;;;;;;0.50;99.90;;;;;;4764983;30;20264;-85
2021/01/02 20:47:11;;;;;;;;;;;0.60;99.90;;;;;;4763543;30;19922;-85
2021/01/02 20:49:39;;;;;;;;;;;0.50;99.90;;;;;;4767314;30;19937;-86
2021/01/02 20:52:06;;;;;;;;;;;0.50;99.90;;;;;;4775387;30;19950;-86
2021/01/02 20:54:32;;;;;;;;;;;0.50;99.90;;;;;;4765386;30;20385;-85
2021/01/02 20:56:58;;;;;;;;;;;0.60;99.90;;;;;;4763403;30;20030;-84
2021/01/02 20:59:25;;;;;;;;;;;0.60;99.90;;;;;;4750272;30;20689;-84
2021/01/02 21:01:54;;;;;;;;;;;0.60;99.90;;;;;;4766497;30;19918;-85
2021/01/02 21:04:21;;;;;;;;;;;0.60;99.90;;;;;;4765851;29;20599;-85
2021/01/02 21:06:47;;;;;;;;;;;0.60;99.90;;;;;;4761766;29;19921;-86
2021/01/02 21:09:15;;;;;;;;;;;0.60;99.90;;;;;;4769819;30;20294;-86
2021/01/02 21:11:45;;;;;;;;;;;0.70;99.90;;;;;;4768513;30;19955;-85
2021/01/02 21:14:12;;;;;;;;;;;0.60;99.90;;;;;;4771870;30;19921;-84
2021/01/02 21:16:39;;;;;;;;;;;0.70;99.90;;;;;;4772829;30;19925;-84
2021/01/02 21:19:09;;;;;;;;;;;0.60;99.90;;;;;;4789083;30;19921;-84
2021/01/02 21:21:35;;;;;;;;;;;0.70;99.90;;;;;;4788139;29;19933;-84
2021/01/02 21:24:02;;;;;;;;;;;0.60;99.90;;;;;;4772724;30;19921;-83
2021/01/02 21:26:29;;;;;;;;;;;0.60;99.90;;;;;;4774787;30;19926;-83
2021/01/02 21:28:55;;;;;;;;;;;0.60;99.90;;;;;;4774375;30;19925;-84
2021/01/02 21:31:21;;;;;;;;;;;0.60;99.90;;;;;;4772406;30;19926;-84
2021/01/02 21:33:47;;;;;;;;;;;0.70;99.90;;;;;;4772784;29;19971;-84
2021/01/02 21:36:13;;;;;;;;;;;0.60;99.90;;;;;;4772274;29;20390;-84
2021/01/02 21:38:38;;;;;;;;;;;0.70;99.90;;;;;;4772452;30;20001;-84
2021/01/02 21:41:15;;;;;;;;;;;0.70;99.90;;;;;;4773105;30;19965;-84
2021/01/02 21:43:41;;;;;;;;;;;0.60;99.90;;;;;;4755289;30;19930;-84
2021/01/02 21:46:06;;;;;;;;;;;0.60;99.90;;;;;;4754658;30;19922;-83
2021/01/02 21:48:33;;;;;;;;;;;0.60;99.90;;;;;;4754578;30;19953;-85